Δεν απαιτείται κάποια ιδιαίτερη επαγρύπνηση.    Δεν υπάρχει έκτακτο δελτίο καιρού

Οι άλλοι ιστότοποί μου:

SYKIA HOMEWEATHERSTATIONsikeaweather.alinos.eu

SYKIA METEOTEMPLATEsykiameteo.alinos.eu

alinos.eualinos.eu



Αναφορές γειτονικών METAR

   
LGEL - Elefsis (hel-Afb, Greece
Απόσταση από τον σταθμό: Α 77 km
Ενημερώθηκε: 02-12-2020 15:20
ΟΧΙ Τωρινό
Μερικώς νεφελώδης  
Μερικώς νεφελώδης  
   Ανεμος: ΑΒΑ 14.8 km/h
Ανεμος: ΑΒΑ 14.8 km/h
Θερμοκρασία: 14°C
Σημείο Δρόσου: 7°C
Υγρασία: 63%
Βαρόμετρο: 1018 hPa
Νεφώσεις: Μερικώς νεφελώδης
Ορατότητα: More than 10 km
Στοιχεία νεφών: Διάσπαρτα νέφη 1800 ft,
Μερικώς νεφελώδης 2500 ft
LGEL 021320Z 07008KT 9999 FEW018 SCT025 14/07 Q1018
LGRX - Araxos (civ/Afb), Greece
Απόσταση από τον σταθμό: Δ 110 km
Ενημερώθηκε: 02-12-2020 16:50
Κατά το πλείστον νεφελώδης  
Κατά το πλείστον νεφελώδης  
   Ανεμος: ΒΑ 20.4 km/h
Ανεμος: ΒΑ 20.4 km/h
Θερμοκρασία: 15°C
Σημείο Δρόσου: 10°C
Υγρασία: 72%
Βαρόμετρο: 1016 hPa
Νεφώσεις: Κατά το πλείστον νεφελώδης
Ορατότητα: More than 10 km
Στοιχεία νεφών: Διάσπαρτα νέφη 5000 ft,
Κατά το πλείστον νεφελώδης 8000 ft
LGRX 021450Z 04011KT 9999 FEW050 BKN080 15/10 Q1016
LGAV - Athens/Elef-Ven, Greece
Απόσταση από τον σταθμό: Α 113 km
Ενημερώθηκε: 02-12-2020 16:50
Κατά το πλείστον νεφελώδης  
Κατά το πλείστον νεφελώδης  
   Ανεμος: Βόρια 9.3 km/h
Ανεμος: Βόρια 9.3 km/h
Θερμοκρασία: 13°C
Σημείο Δρόσου: 7°C
Υγρασία: 67%
Βαρόμετρο: 1020 hPa
Νεφώσεις: Κατά το πλείστον νεφελώδης
Ορατότητα: More than 10 km
Στοιχεία νεφών: Διάσπαρτα νέφη 2000 ft,
Μερικώς νεφελώδης 3000 ft,
Κατά το πλείστον νεφελώδης 7000 ft
LGAV 021450Z 36005KT 9999 FEW020 SCT030 BKN070 13/07 Q1020 NOSIG
LGAD - Andravida (civ/A, Greece
Απόσταση από τον σταθμό: Δ 124 km
Ενημερώθηκε: 02-12-2020 16:50
Κατά το πλείστον νεφελώδης  
Κατά το πλείστον νεφελώδης  
   Ανεμος: ΒΑ 7.4 km/h
Ανεμος: ΒΑ 7.4 km/h
Θερμοκρασία: 15°C
Σημείο Δρόσου: 11°C
Υγρασία: 77%
Βαρόμετρο: 1016 hPa
Νεφώσεις: Κατά το πλείστον νεφελώδης
Ορατότητα: More than 10 km
Στοιχεία νεφών: Διάσπαρτα νέφη 1800 ft,
Μερικώς νεφελώδης 2500 ft,
Κατά το πλείστον νεφελώδης 8000 ft
LGAD 021450Z 05004KT 9999 FEW018TCU SCT025 BKN080 15/11 Q1016
LGKL - Kalamata (hel-Af, Greece
Απόσταση από τον σταθμό: ΝΝΔ 124 km
Ενημερώθηκε: 02-12-2020 16:50
Διάσπαρτα νέφη  
Διάσπαρτα νέφη  
   Ανεμος: Απνοια
Ανεμος: Απνοια
Θερμοκρασία: 15°C
Σημείο Δρόσου: 12°C
Υγρασία: 82%
Βαρόμετρο: 1017 hPa
Νεφώσεις: Διάσπαρτα νέφη
Ορατότητα: More than 10 km
Στοιχεία νεφών: Διάσπαρτα νέφη 2500 ft
LGKL 021450Z 00000KT 9999 FEW025 15/12 Q1017
LGBL - Nea Anchialos, Greece
Απόσταση από τον σταθμό: Β 129 km
Ενημερώθηκε: 02-12-2020 16:20
Ασθενής βροχή, Συννεφιασμένος  
Ασθενής βροχή, Συννεφιασμένος  
   Ανεμος: Απνοια
Ανεμος: Απνοια
Θερμοκρασία: 10°C
Σημείο Δρόσου: 8°C
Υγρασία: 88%
Βαρόμετρο: 1020 hPa
Νεφώσεις: Συννεφιασμένος
Ορατότητα: 6 km
Στοιχεία νεφών: Διάσπαρτα νέφη 1000 ft,
Συννεφιασμένος 2000 ft
LGBL 021420Z 00000KT 6000 -RA FEW010 OVC020 10/08 Q1020

Αρχική γραφή από  Saratoga-weather.org Προσαρμογή στον ιστότοπο από  Weerstation Leuven

Βλέπε επίσης τις ενημερώσεις τού σταθμού μας στα παρακάτω δίκτυα:

European Weather Network

Weather Underground

AWEKAS

Citizen Weather Observer Program (CWOP)

UK Metoffice

Equipment we use:

Μετεωρολογικός σταθμός
Davis Wireless Vantage Pro2

Davis Wireless Vantage Pro2